Sumpter, Illinois
Current Conditions -  °F | °C
As of 8:53 PM on Monday 20 Oct 2014 (Local Time) from KMTO Reporting Station
Clear Clear  
Wind Chill: 51°   Ceiling: Unl
Heat Index: 51°   Visibility: 10mi
Dew Point: 43°   Wind: 6mph
Humidity: 74%   Direction: 300°WNW
Pressure: 29.97"   Gusts: NA
Location:  39.2896°N, 88.2485°W
Report Text: KMTO 210153Z AUTO 30005KT 10SM CLR 11/06 A2997 RMK AO2 SLP148 T01060061
Loading
Personal Weather Stations






























Interactive Weather Map
Tropical Storm Tracking
New forecast layout! Learn more

10-Day Weather Forecast

Advertisements
Track Severe Weather on mobile